createdAt,value
2019-02-12T00:02:13.707Z,-0.60
2019-02-12T00:04:40.957Z,-0.70
2019-02-12T00:07:08.399Z,-0.70
2019-02-12T00:09:36.017Z,-0.60
2019-02-12T00:12:03.356Z,-0.50
2019-02-12T00:14:30.605Z,-0.40
2019-02-12T00:16:57.829Z,-0.40
2019-02-12T00:19:25.147Z,-0.40
2019-02-12T00:21:52.357Z,-0.40
2019-02-12T00:24:19.594Z,-0.40
2019-02-12T00:26:46.817Z,-0.40
2019-02-12T00:29:13.944Z,-0.60
2019-02-12T00:31:41.240Z,-0.60
2019-02-12T00:34:08.459Z,-0.50
2019-02-12T00:36:35.725Z,-0.40
2019-02-12T00:39:04.891Z,-0.40
2019-02-12T00:41:32.138Z,-0.50
2019-02-12T00:43:59.365Z,-0.50
2019-02-12T00:46:26.703Z,-0.50
2019-02-12T00:48:53.930Z,-0.60
2019-02-12T00:51:21.171Z,-0.50
2019-02-12T00:53:48.748Z,-0.50
2019-02-12T00:56:16.010Z,-0.50
2019-02-12T00:58:43.233Z,-0.60
2019-02-12T01:01:10.371Z,-0.50
2019-02-12T01:03:37.970Z,-0.50
2019-02-12T01:06:05.312Z,-0.50
2019-02-12T01:08:32.535Z,-0.70
2019-02-12T01:10:59.779Z,-0.70
2019-02-12T01:13:26.992Z,-0.90
2019-02-12T01:15:54.231Z,-0.80
2019-02-12T01:18:21.696Z,-0.60
2019-02-12T01:20:48.941Z,-0.50
2019-02-12T01:23:16.164Z,-0.50
2019-02-12T01:25:43.413Z,-0.50
2019-02-12T01:28:10.623Z,-0.40
2019-02-12T01:30:37.896Z,-0.20
2019-02-12T01:33:05.216Z,-0.20
2019-02-12T01:35:32.463Z,-0.20
2019-02-12T01:37:59.679Z,-0.10
2019-02-12T01:40:26.916Z,0.00
2019-02-12T01:42:54.247Z,0.00
2019-02-12T01:45:21.568Z,0.10
2019-02-12T01:47:48.800Z,0.20
2019-02-12T01:50:16.032Z,0.20
2019-02-12T01:52:43.164Z,0.20
2019-02-12T01:55:10.485Z,0.20
2019-02-12T01:57:38.012Z,0.30
2019-02-12T02:00:07.069Z,0.30
2019-02-12T02:02:34.290Z,0.30
2019-02-12T02:05:01.589Z,0.20
2019-02-12T02:07:28.809Z,0.10
2019-02-12T02:09:56.031Z,0.00
2019-02-12T02:12:23.265Z,0.00
2019-02-12T02:14:50.559Z,0.00
2019-02-12T02:17:17.879Z,-0.10
2019-02-12T02:19:45.188Z,0.10
2019-02-12T02:22:12.432Z,0.00
2019-02-12T02:24:39.656Z,0.00
2019-02-12T02:27:06.912Z,-0.20
2019-02-12T02:29:34.131Z,-0.30
2019-02-12T02:32:01.375Z,-0.30
2019-02-12T02:34:28.603Z,-0.20
2019-02-12T02:36:55.863Z,-0.10
2019-02-12T02:39:23.172Z,-0.10
2019-02-12T02:41:50.424Z,-0.10
2019-02-12T02:44:17.641Z,-0.10
2019-02-12T02:46:44.900Z,0.00
2019-02-12T02:49:12.129Z,0.20
2019-02-12T02:51:39.474Z,0.30
2019-02-12T02:54:06.693Z,0.30
2019-02-12T02:56:34.204Z,0.20
2019-02-12T02:59:01.417Z,0.30
2019-02-12T03:01:28.660Z,0.30
2019-02-12T03:03:55.890Z,0.30
2019-02-12T03:06:23.521Z,0.40
2019-02-12T03:08:50.748Z,0.30
2019-02-12T03:11:18.011Z,0.40
2019-02-12T03:13:45.247Z,0.50
2019-02-12T03:16:12.553Z,0.50
2019-02-12T03:18:39.786Z,0.50
2019-02-12T03:21:06.939Z,0.50
2019-02-12T03:23:34.163Z,0.40
2019-02-12T03:26:01.396Z,0.20
2019-02-12T03:28:28.640Z,0.10
2019-02-12T03:30:55.960Z,-0.10
2019-02-12T03:33:23.224Z,-0.10
2019-02-12T03:35:50.540Z,-0.10
2019-02-12T03:38:18.094Z,-0.20
2019-02-12T03:40:45.672Z,-0.30
2019-02-12T03:43:12.919Z,-0.50
2019-02-12T03:45:40.150Z,-0.60
2019-02-12T03:48:07.711Z,-0.70
2019-02-12T03:50:34.928Z,-0.70
2019-02-12T03:53:02.183Z,-0.70
2019-02-12T03:55:29.403Z,-0.70
2019-02-12T03:57:56.723Z,-0.70
2019-02-12T04:00:23.941Z,-0.70
2019-02-12T04:02:59.609Z,-0.70
2019-02-12T04:05:27.388Z,-0.70
2019-02-12T04:07:55.043Z,-0.70
2019-02-12T04:10:22.261Z,-0.70
2019-02-12T04:12:49.589Z,-0.80
2019-02-12T04:15:16.815Z,-0.80
2019-02-12T04:17:44.046Z,-0.80
2019-02-12T04:20:11.284Z,-0.70
2019-02-12T04:22:38.499Z,-0.60
2019-02-12T04:25:05.752Z,-0.50
2019-02-12T04:27:32.963Z,-0.50
2019-02-12T04:30:00.310Z,-0.50
2019-02-12T04:32:27.823Z,-0.60
2019-02-12T04:34:55.219Z,-0.50
2019-02-12T04:37:22.455Z,-0.60
2019-02-12T04:39:49.682Z,-0.50
2019-02-12T04:42:16.909Z,-0.50
2019-02-12T04:44:44.127Z,-0.50
2019-02-12T04:47:11.355Z,-0.50
2019-02-12T04:49:38.709Z,-0.50
2019-02-12T04:52:06.292Z,-0.50
2019-02-12T04:54:33.521Z,-0.60
2019-02-12T04:57:00.750Z,-0.60
2019-02-12T04:59:27.961Z,-0.60
2019-02-12T05:01:55.260Z,-0.60
2019-02-12T05:04:22.547Z,-0.50
2019-02-12T05:06:49.766Z,-0.60
2019-02-12T05:09:18.888Z,-0.70
2019-02-12T05:11:57.577Z,-0.80
2019-02-12T05:14:24.835Z,-0.80
2019-02-12T05:16:52.096Z,-0.90
2019-02-12T05:19:19.437Z,-0.80
2019-02-12T05:21:46.796Z,-0.80
2019-02-12T05:24:14.092Z,-0.90
2019-02-12T05:26:41.313Z,-0.80
2019-02-12T05:29:08.812Z,-0.80
2019-02-12T05:31:36.048Z,-0.70
2019-02-12T05:34:03.287Z,-0.70
2019-02-12T05:36:30.510Z,-0.60
2019-02-12T05:38:57.736Z,-0.60
2019-02-12T05:41:24.953Z,-0.60
2019-02-12T05:43:52.274Z,-0.70
2019-02-12T05:46:19.488Z,-0.80
2019-02-12T05:48:46.742Z,-0.80
2019-02-12T05:51:13.956Z,-0.60
2019-02-12T05:53:41.207Z,-0.60
2019-02-12T05:56:08.433Z,-0.50
2019-02-12T05:58:35.773Z,-0.60
2019-02-12T06:01:03.385Z,-0.70
2019-02-12T06:03:30.737Z,-0.70
2019-02-12T06:05:58.316Z,-0.80
2019-02-12T06:08:25.663Z,-0.80
2019-02-12T06:10:52.990Z,-0.60
2019-02-12T06:13:20.245Z,-0.60
2019-02-12T06:15:47.812Z,-0.80
2019-02-12T06:18:15.061Z,-0.80
2019-02-12T06:20:42.286Z,-0.90
2019-02-12T06:23:09.520Z,-0.80
2019-02-12T06:25:36.751Z,-0.90
2019-02-12T06:28:04.305Z,-0.80
2019-02-12T06:30:31.586Z,-0.80
2019-02-12T06:33:07.184Z,-0.80
2019-02-12T06:35:27.937Z,-0.60
2019-02-12T06:37:55.166Z,-0.70
2019-02-12T06:40:22.679Z,-0.70
2019-02-12T06:42:49.913Z,-0.70
2019-02-12T06:45:17.141Z,-0.70
2019-02-12T06:47:44.366Z,-0.70
2019-02-12T06:50:11.893Z,-0.70
2019-02-12T06:52:39.107Z,-0.70
2019-02-12T06:55:07.327Z,-0.70
2019-02-12T06:57:34.595Z,-0.50
2019-02-12T07:00:01.833Z,-0.50
2019-02-12T07:03:05.601Z,-0.40
2019-02-12T07:05:32.873Z,-0.40
2019-02-12T07:08:45.378Z,0.40
2019-02-12T07:11:24.272Z,0.10
2019-02-12T07:14:21.872Z,-0.10
2019-02-12T07:17:31.015Z,-0.20
2019-02-12T07:20:22.729Z,-0.30
2019-02-12T07:23:30.489Z,-0.30
2019-02-12T07:26:42.529Z,-0.30
2019-02-12T07:30:01.349Z,-0.30
2019-02-12T07:33:13.299Z,-0.10
2019-02-12T07:36:20.081Z,0.00
2019-02-12T07:39:13.600Z,0.00
2019-02-12T07:42:43.783Z,0.00
2019-02-12T07:45:39.955Z,0.00
2019-02-12T07:48:59.721Z,0.00
2019-02-12T07:51:41.979Z,0.10
2019-02-12T07:54:37.573Z,0.10
2019-02-12T07:57:58.570Z,0.10
2019-02-12T08:01:20.076Z,0.10
2019-02-12T08:04:45.363Z,0.00
2019-02-12T08:07:52.401Z,0.20
2019-02-12T08:10:53.539Z,0.30
2019-02-12T08:13:55.986Z,0.30
2019-02-12T08:17:04.089Z,0.40
2019-02-12T08:19:41.204Z,0.60
2019-02-12T08:22:35.333Z,0.90
2019-02-12T08:25:53.767Z,1.10
2019-02-12T08:28:54.499Z,1.40
2019-02-12T08:31:53.890Z,1.50
2019-02-12T08:35:24.149Z,1.50
2019-02-12T08:38:41.176Z,1.80
2019-02-12T08:41:46.383Z,1.80
2019-02-12T08:44:50.492Z,1.90
2019-02-12T08:47:59.692Z,2.00
2019-02-12T08:51:26.971Z,1.80
2019-02-12T08:54:29.560Z,1.70
2019-02-12T08:57:49.359Z,1.70
2019-02-12T09:00:54.636Z,1.60
2019-02-12T09:04:04.259Z,1.70
2019-02-12T09:07:11.021Z,1.90
2019-02-12T09:10:25.016Z,2.00
2019-02-12T09:13:21.981Z,2.30
2019-02-12T09:16:40.144Z,2.40
2019-02-12T09:19:16.831Z,2.60
2019-02-12T09:22:12.269Z,2.60
2019-02-12T09:25:06.319Z,2.70
2019-02-12T09:27:56.845Z,2.70
2019-02-12T09:31:01.872Z,2.70
2019-02-12T09:34:12.748Z,2.80
2019-02-12T09:37:16.616Z,2.90
2019-02-12T09:40:39.961Z,3.10
2019-02-12T09:44:04.469Z,3.20
2019-02-12T09:46:54.991Z,4.10
2019-02-12T09:49:50.045Z,6.10
2019-02-12T09:53:17.455Z,6.80
2019-02-12T09:56:06.160Z,7.30
2019-02-12T09:59:19.682Z,8.10
2019-02-12T10:02:03.695Z,8.60
2019-02-12T10:05:01.694Z,8.80
2019-02-12T10:07:48.495Z,8.90
2019-02-12T10:10:37.667Z,9.30
2019-02-12T10:13:19.329Z,9.50
2019-02-12T10:16:13.367Z,9.50
2019-02-12T10:19:37.819Z,9.40
2019-02-12T10:22:35.446Z,9.00
2019-02-12T10:25:15.319Z,8.20
2019-02-12T10:28:48.566Z,7.70
2019-02-12T10:31:41.064Z,7.50
2019-02-12T10:34:08.452Z,7.50
2019-02-12T10:36:35.669Z,7.60
2019-02-12T10:39:04.579Z,7.80
2019-02-12T10:41:31.795Z,7.40
2019-02-12T10:43:59.316Z,7.10
2019-02-12T10:46:26.594Z,7.00
2019-02-12T10:48:53.934Z,7.00
2019-02-12T10:51:21.148Z,7.40
2019-02-12T10:53:48.400Z,7.40
2019-02-12T10:56:15.619Z,7.20
2019-02-12T10:58:42.855Z,7.10
2019-02-12T11:01:10.226Z,7.10
2019-02-12T11:03:37.528Z,6.90
2019-02-12T11:06:04.756Z,6.50
2019-02-12T11:08:31.968Z,6.40
2019-02-12T11:10:59.216Z,6.60
2019-02-12T11:13:26.434Z,6.70
2019-02-12T11:15:53.663Z,6.80
2019-02-12T11:18:20.896Z,7.30
2019-02-12T11:20:48.117Z,7.40
2019-02-12T11:23:15.636Z,7.80
2019-02-12T11:25:43.203Z,7.90
2019-02-12T11:28:10.440Z,8.30
2019-02-12T11:30:37.738Z,8.30
2019-02-12T11:33:04.967Z,8.40
2019-02-12T11:35:32.215Z,9.10
2019-02-12T11:37:59.431Z,9.50
2019-02-12T11:40:27.036Z,10.10
2019-02-12T11:42:54.348Z,8.90
2019-02-12T11:45:21.709Z,8.70
2019-02-12T11:47:48.988Z,9.80
2019-02-12T11:50:16.240Z,9.40
2019-02-12T11:52:43.792Z,9.40
2019-02-12T11:55:11.052Z,9.80
2019-02-12T11:57:38.264Z,9.60
2019-02-12T12:00:08.510Z,9.00
2019-02-12T12:02:41.791Z,8.60
2019-02-12T12:05:05.604Z,9.20
2019-02-12T12:07:32.913Z,10.30
2019-02-12T12:10:00.243Z,10.70
2019-02-12T12:12:27.539Z,11.00
2019-02-12T12:14:54.793Z,11.50
2019-02-12T12:17:22.020Z,11.60
2019-02-12T12:19:49.604Z,11.00
2019-02-12T12:22:16.835Z,10.80
2019-02-12T12:24:51.308Z,10.70
2019-02-12T12:27:13.268Z,10.70
2019-02-12T12:29:40.644Z,10.30
2019-02-12T12:32:07.880Z,10.00
2019-02-12T12:34:35.371Z,9.60
2019-02-12T12:37:02.945Z,9.40
2019-02-12T12:39:30.276Z,9.20
2019-02-12T12:41:57.883Z,9.10
2019-02-12T12:44:25.189Z,8.20
2019-02-12T12:46:52.488Z,7.80
2019-02-12T12:49:19.708Z,7.50
2019-02-12T12:51:46.942Z,7.30
2019-02-12T12:54:14.251Z,7.30
2019-02-12T12:56:41.476Z,7.40
2019-02-12T12:59:08.696Z,7.50
2019-02-12T13:01:35.919Z,7.40
2019-02-12T13:04:03.132Z,7.30
2019-02-12T13:06:30.376Z,7.20
2019-02-12T13:08:57.636Z,7.20
2019-02-12T13:11:26.669Z,7.20
2019-02-12T13:13:54.099Z,7.20
2019-02-12T13:16:21.316Z,7.40
2019-02-12T13:18:48.531Z,7.60
2019-02-12T13:21:16.123Z,7.50
2019-02-12T13:23:43.340Z,7.70
2019-02-12T13:26:10.587Z,7.70
2019-02-12T13:28:37.805Z,7.80
2019-02-12T13:31:05.048Z,7.80
2019-02-12T13:33:32.276Z,7.70
2019-02-12T13:35:59.525Z,7.50
2019-02-12T13:38:26.749Z,7.50
2019-02-12T13:40:54.017Z,7.50
2019-02-12T13:43:21.244Z,7.40
2019-02-12T13:45:48.483Z,7.20
2019-02-12T13:48:15.700Z,7.10
2019-02-12T13:50:43.249Z,7.10
2019-02-12T13:53:10.468Z,7.20
2019-02-12T13:55:37.989Z,7.20
2019-02-12T13:58:05.217Z,7.20
2019-02-12T14:00:32.427Z,7.20
2019-02-12T14:02:59.651Z,6.90
2019-02-12T14:05:26.896Z,6.70
2019-02-12T14:07:54.194Z,6.70
2019-02-12T14:10:21.399Z,6.50
2019-02-12T14:12:48.940Z,6.40
2019-02-12T14:15:16.159Z,6.40
2019-02-12T14:17:43.379Z,6.40
2019-02-12T14:20:11.780Z,6.40
2019-02-12T14:22:39.385Z,6.30
2019-02-12T14:25:07.088Z,6.40
2019-02-12T14:27:34.329Z,6.50
2019-02-12T14:30:01.653Z,6.40
2019-02-12T14:32:29.292Z,6.50
2019-02-12T14:34:56.530Z,6.40
2019-02-12T14:37:23.763Z,6.40
2019-02-12T14:39:50.992Z,6.50
2019-02-12T14:42:18.616Z,6.50
2019-02-12T14:44:45.935Z,6.50
2019-02-12T14:47:13.416Z,6.50
2019-02-12T14:49:40.645Z,6.30
2019-02-12T14:52:08.324Z,6.30
2019-02-12T14:54:35.561Z,6.30
2019-02-12T14:57:02.950Z,6.20
2019-02-12T14:59:30.185Z,6.10
2019-02-12T15:01:57.768Z,6.10
2019-02-12T15:04:25.304Z,6.00
2019-02-12T15:06:52.565Z,5.90
2019-02-12T15:09:19.815Z,6.00
2019-02-12T15:11:47.072Z,6.00
2019-02-12T15:14:14.316Z,6.00
2019-02-12T15:16:41.571Z,6.10
2019-02-12T15:19:08.811Z,6.00
2019-02-12T15:21:36.073Z,5.80
2019-02-12T15:24:03.308Z,5.60
2019-02-12T15:26:30.538Z,5.60
2019-02-12T15:28:58.136Z,5.60
2019-02-12T15:31:25.405Z,5.60
2019-02-12T15:33:52.750Z,5.60
2019-02-12T15:36:20.300Z,5.70
2019-02-12T15:38:47.552Z,5.80
2019-02-12T15:41:14.875Z,5.70
2019-02-12T15:43:42.113Z,5.60
2019-02-12T15:46:09.352Z,5.60
2019-02-12T15:48:36.587Z,5.60
2019-02-12T15:51:03.819Z,5.60
2019-02-12T15:53:31.383Z,5.70
2019-02-12T15:55:58.624Z,5.60
2019-02-12T15:58:26.418Z,5.60
2019-02-12T16:00:54.992Z,5.60
2019-02-12T16:03:22.224Z,5.50
2019-02-12T16:05:49.455Z,5.50
2019-02-12T16:08:17.031Z,5.30
2019-02-12T16:10:44.584Z,5.30
2019-02-12T16:13:13.563Z,5.20
2019-02-12T16:15:42.982Z,5.20
2019-02-12T16:18:10.125Z,5.10
2019-02-12T16:20:37.436Z,5.00
2019-02-12T16:23:04.944Z,5.00
2019-02-12T16:25:32.182Z,4.90
2019-02-12T16:27:59.425Z,4.80
2019-02-12T16:30:26.658Z,4.70
2019-02-12T16:32:53.891Z,4.70
2019-02-12T16:35:21.126Z,4.70
2019-02-12T16:37:48.380Z,4.60
2019-02-12T16:40:15.621Z,4.50
2019-02-12T16:42:42.970Z,4.50
2019-02-12T16:45:19.683Z,4.30
2019-02-12T16:47:46.956Z,4.20
2019-02-12T16:50:14.196Z,4.10
2019-02-12T16:52:41.425Z,4.10
2019-02-12T16:55:09.479Z,4.00
2019-02-12T16:57:38.033Z,3.90
2019-02-12T17:00:08.830Z,4.00
2019-02-12T17:02:36.062Z,3.80
2019-02-12T17:05:03.747Z,3.70
2019-02-12T17:07:31.042Z,3.90
2019-02-12T17:09:58.445Z,3.90
2019-02-12T17:12:25.676Z,3.90
2019-02-12T17:14:52.921Z,3.70
2019-02-12T17:17:20.443Z,3.50
2019-02-12T17:19:47.680Z,3.60
2019-02-12T17:22:14.920Z,3.50
2019-02-12T17:24:42.167Z,3.20
2019-02-12T17:27:09.407Z,3.00
2019-02-12T17:29:36.646Z,3.00
2019-02-12T17:32:03.877Z,2.90
2019-02-12T17:34:31.428Z,2.80
2019-02-12T17:36:58.666Z,2.70
2019-02-12T17:39:26.262Z,2.60
2019-02-12T17:41:53.686Z,2.60
2019-02-12T17:44:20.924Z,2.60
2019-02-12T17:46:48.168Z,2.50
2019-02-12T17:49:15.413Z,2.60
2019-02-12T17:51:43.004Z,2.60
2019-02-12T17:54:10.912Z,2.50
2019-02-12T17:56:38.144Z,2.40
2019-02-12T17:59:05.359Z,2.40
2019-02-12T18:01:32.596Z,2.50
2019-02-12T18:03:59.824Z,2.50
2019-02-12T18:06:27.045Z,2.50
2019-02-12T18:08:55.201Z,2.30
2019-02-12T18:11:22.436Z,2.20
2019-02-12T18:13:50.859Z,2.10
2019-02-12T18:16:18.091Z,1.90
2019-02-12T18:18:45.328Z,1.80
2019-02-12T18:21:12.559Z,1.60
2019-02-12T18:23:40.167Z,1.60
2019-02-12T18:26:07.395Z,1.50
2019-02-12T18:28:34.720Z,1.40
2019-02-12T18:31:01.956Z,1.40
2019-02-12T18:33:29.187Z,1.50
2019-02-12T18:35:56.415Z,1.50
2019-02-12T18:38:23.636Z,1.30
2019-02-12T18:40:50.861Z,1.30
2019-02-12T18:43:18.088Z,1.10
2019-02-12T18:45:45.307Z,1.10
2019-02-12T18:48:12.864Z,1.10
2019-02-12T18:50:40.116Z,1.10
2019-02-12T18:53:07.427Z,0.90
2019-02-12T18:55:34.776Z,0.70
2019-02-12T18:58:02.204Z,0.70
2019-02-12T19:00:29.876Z,0.60
2019-02-12T19:02:57.091Z,0.50
2019-02-12T19:05:24.336Z,0.50
2019-02-12T19:07:51.903Z,0.40
2019-02-12T19:10:19.574Z,0.40
2019-02-12T19:12:46.779Z,0.30
2019-02-12T19:15:14.575Z,0.30
2019-02-12T19:17:43.808Z,0.20
2019-02-12T19:20:11.953Z,0.30
2019-02-12T19:22:39.067Z,0.30
2019-02-12T19:25:07.420Z,0.40
2019-02-12T19:27:34.655Z,0.40
2019-02-12T19:30:02.039Z,0.40
2019-02-12T19:32:29.540Z,0.40
2019-02-12T19:34:57.210Z,0.40
2019-02-12T19:37:24.781Z,0.30
2019-02-12T19:39:52.021Z,0.40
2019-02-12T19:42:19.336Z,0.30
2019-02-12T19:44:47.184Z,0.10
2019-02-12T19:47:14.408Z,0.20
2019-02-12T19:49:41.784Z,0.10
2019-02-12T19:52:09.024Z,0.10
2019-02-12T19:54:36.267Z,0.00
2019-02-12T19:57:03.485Z,-0.20
2019-02-12T19:59:30.736Z,-0.20
2019-02-12T20:01:57.960Z,-0.20
2019-02-12T20:04:25.180Z,-0.10
2019-02-12T20:06:52.413Z,-0.10
2019-02-12T20:09:21.557Z,-0.10
2019-02-12T20:11:48.872Z,-0.20
2019-02-12T20:14:16.099Z,-0.20
2019-02-12T20:16:43.351Z,-0.30
2019-02-12T20:19:10.590Z,-0.50
2019-02-12T20:21:37.843Z,-0.50
2019-02-12T20:24:05.072Z,-0.50
2019-02-12T20:26:32.534Z,-0.40
2019-02-12T20:29:00.168Z,-0.40
2019-02-12T20:31:27.679Z,-0.40
2019-02-12T20:33:57.085Z,-0.40
2019-02-12T20:36:24.468Z,-0.40
2019-02-12T20:38:52.002Z,-0.40
2019-02-12T20:41:19.242Z,-0.50
2019-02-12T20:43:46.477Z,-0.40
2019-02-12T20:46:13.819Z,-0.40
2019-02-12T20:48:41.143Z,-0.40
2019-02-12T20:51:08.387Z,-0.50
2019-02-12T20:53:35.916Z,-0.50
2019-02-12T20:56:03.475Z,-0.60
2019-02-12T20:58:30.700Z,-0.80
2019-02-12T21:00:57.953Z,-0.80
2019-02-12T21:03:25.173Z,-0.70
2019-02-12T21:05:52.420Z,-0.70
2019-02-12T21:08:20.053Z,-0.70
2019-02-12T21:10:47.470Z,-0.70
2019-02-12T21:13:14.957Z,-0.70
2019-02-12T21:15:42.265Z,-0.60
2019-02-12T21:18:09.567Z,-0.70
2019-02-12T21:20:36.704Z,-0.70
2019-02-12T21:23:04.288Z,-0.80
2019-02-12T21:25:31.512Z,-0.80
2019-02-12T21:27:58.752Z,-0.90
2019-02-12T21:30:25.993Z,-0.90
2019-02-12T21:32:53.225Z,-1.00
2019-02-12T21:35:20.439Z,-0.90
2019-02-12T21:37:47.663Z,-0.90
2019-02-12T21:40:17.239Z,-0.90
2019-02-12T21:42:44.524Z,-1.00
2019-02-12T21:45:12.782Z,-0.90
2019-02-12T21:47:40.471Z,-1.00
2019-02-12T21:50:07.711Z,-1.00
2019-02-12T21:52:34.960Z,-0.90
2019-02-12T21:55:02.183Z,-1.10
2019-02-12T21:57:31.672Z,-1.20
2019-02-12T21:59:58.597Z,-1.30
2019-02-12T22:02:25.843Z,-1.30
2019-02-12T22:04:53.059Z,-1.30
2019-02-12T22:07:20.311Z,-1.30
2019-02-12T22:09:47.551Z,-1.30
2019-02-12T22:12:14.801Z,-1.20
2019-02-12T22:14:42.399Z,-1.20
2019-02-12T22:17:09.661Z,-1.30
2019-02-12T22:19:37.223Z,-1.30
2019-02-12T22:22:04.484Z,-1.30
2019-02-12T22:24:31.720Z,-1.30
2019-02-12T22:26:58.970Z,-1.50
2019-02-12T22:29:26.239Z,-1.40
2019-02-12T22:31:53.480Z,-1.30
2019-02-12T22:34:20.697Z,-1.30
2019-02-12T22:36:47.935Z,-1.40
2019-02-12T22:39:15.161Z,-1.60
2019-02-12T22:41:42.407Z,-1.70
2019-02-12T22:44:09.629Z,-1.80
2019-02-12T22:46:36.892Z,-1.80
2019-02-12T22:49:04.349Z,-1.60
2019-02-12T22:51:31.595Z,-1.50
2019-02-12T22:53:59.252Z,-1.40
2019-02-12T22:56:26.479Z,-1.30
2019-02-12T22:58:53.713Z,-1.30
2019-02-12T23:01:31.416Z,-1.40
2019-02-12T23:03:58.637Z,-1.40
2019-02-12T23:06:25.861Z,-1.40
2019-02-12T23:08:53.075Z,-1.40
2019-02-12T23:11:20.291Z,-1.40
2019-02-12T23:13:47.511Z,-1.50
2019-02-12T23:16:15.074Z,-1.60
2019-02-12T23:18:42.375Z,-1.70
2019-02-12T23:21:09.654Z,-1.80
2019-02-12T23:23:36.879Z,-1.80
2019-02-12T23:26:04.095Z,-1.90
2019-02-12T23:28:31.315Z,-1.80
2019-02-12T23:30:58.456Z,-1.80
2019-02-12T23:33:25.671Z,-1.80
2019-02-12T23:35:52.900Z,-1.80
2019-02-12T23:38:20.231Z,-1.80
2019-02-12T23:40:47.843Z,-1.90
2019-02-12T23:43:15.461Z,-2.00
2019-02-12T23:45:42.673Z,-2.00
2019-02-12T23:48:09.920Z,-1.90
2019-02-12T23:50:37.158Z,-1.90
2019-02-12T23:53:04.399Z,-2.00
2019-02-12T23:55:31.625Z,-2.00
2019-02-12T23:58:05.747Z,-2.00
